Time;durP1;ratioP1;P1;durP2;ratioP2;P2;SDS_P1;SDS_P2;PMS_P1;PMS_P2;Temp;Humidity;BMP_temperature;BMP_pressure;BME280_temperature;BME280_humidity;BME280_pressure;Samples;Min_cycle;Max_cycle;Signal;HPM_P1;HPM_P2
2023/11/30 00:00:38;;;;;;;19.10;10.43;;;1.50;99.90;;;;;;4722867;30;20127;-50
2023/11/30 00:03:05;;;;;;;15.63;10.50;;;1.50;99.90;;;;;;4724252;30;20061;-52
2023/11/30 00:05:32;;;;;;;16.15;10.52;;;1.50;99.90;;;;;;4728833;30;20499;-48
2023/11/30 00:07:59;;;;;;;17.10;10.95;;;1.60;99.90;;;;;;4705796;30;20056;-53
2023/11/30 00:10:27;;;;;;;17.85;10.68;;;1.60;99.90;;;;;;4726495;30;20045;-51
2023/11/30 00:12:54;;;;;;;15.60;10.20;;;1.60;99.90;;;;;;4729606;30;20527;-48
2023/11/30 00:15:21;;;;;;;16.48;10.93;;;1.60;99.90;;;;;;4724669;30;20103;-51
2023/11/30 00:17:48;;;;;;;17.50;10.10;;;1.60;99.90;;;;;;4722383;30;20367;-46
2023/11/30 00:20:15;;;;;;;16.58;9.77;;;1.70;99.90;;;;;;4723385;30;20057;-50
2023/11/30 00:22:42;;;;;;;17.10;10.52;;;1.60;99.90;;;;;;4728267;30;20380;-51
2023/11/30 00:25:09;;;;;;;17.77;10.38;;;1.60;99.90;;;;;;4711167;30;20151;-50
2023/11/30 00:27:36;;;;;;;15.90;10.13;;;1.60;99.90;;;;;;4728647;30;20851;-49
2023/11/30 00:30:04;;;;;;;13.68;8.90;;;1.60;99.90;;;;;;4709220;30;20139;-55
2023/11/30 00:32:31;;;;;;;17.08;10.40;;;1.60;99.90;;;;;;4713967;30;20048;-49
2023/11/30 00:34:59;;;;;;;14.90;9.98;;;1.60;99.90;;;;;;4730408;30;20061;-51
2023/11/30 00:37:26;;;;;;;15.70;9.70;;;1.60;99.90;;;;;;4712272;30;20511;-55
2023/11/30 00:39:53;;;;;;;16.90;9.63;;;1.60;99.90;;;;;;4726780;30;20093;-50
2023/11/30 00:42:21;;;;;;;15.32;9.25;;;1.50;99.90;;;;;;4712788;30;20229;-54
2023/11/30 00:44:48;;;;;;;17.20;10.30;;;1.50;99.90;;;;;;4728819;30;20438;-49
2023/11/30 00:47:16;;;;;;;15.70;9.88;;;1.60;99.90;;;;;;4714575;30;20071;-55
2023/11/30 00:49:43;;;;;;;15.05;9.77;;;1.60;99.90;;;;;;4713370;30;20056;-53
2023/11/30 00:52:10;;;;;;;16.15;9.77;;;1.60;99.90;;;;;;4729340;30;20683;-50
2023/11/30 00:54:37;;;;;;;16.25;10.25;;;1.60;99.90;;;;;;4727972;30;20550;-51
2023/11/30 00:57:04;;;;;;;17.30;9.80;;;1.60;99.90;;;;;;4711654;30;20139;-53
2023/11/30 00:59:31;;;;;;;17.30;9.45;;;1.60;99.90;;;;;;4729280;30;20067;-50
2023/11/30 01:01:58;;;;;;;18.50;10.95;;;1.60;99.90;;;;;;4728016;30;20056;-50
2023/11/30 01:04:25;;;;;;;15.02;9.98;;;1.60;99.90;;;;;;4720384;30;20053;-52
2023/11/30 01:06:53;;;;;;;17.40;10.05;;;1.60;99.90;;;;;;4725668;30;20059;-52
2023/11/30 01:09:20;;;;;;;15.77;9.40;;;1.60;99.90;;;;;;4713328;30;20508;-49
2023/11/30 01:11:47;;;;;;;17.35;10.60;;;1.60;99.90;;;;;;4710989;30;20060;-50
2023/11/30 01:14:14;;;;;;;16.02;10.02;;;1.60;99.90;;;;;;4704937;30;20400;-50
2023/11/30 01:16:41;;;;;;;16.80;9.23;;;1.60;99.90;;;;;;4726443;30;20383;-54
2023/11/30 01:19:08;;;;;;;16.10;9.98;;;1.70;99.90;;;;;;4719199;30;20456;-52
2023/11/30 01:21:36;;;;;;;15.00;9.85;;;1.70;99.90;;;;;;4725811;30;20056;-49
2023/11/30 01:24:03;;;;;;;14.82;9.88;;;1.70;99.90;;;;;;4711325;30;20053;-52
2023/11/30 01:26:31;;;;;;;15.55;10.02;;;1.70;99.90;;;;;;4727856;30;20057;-53
2023/11/30 01:28:58;;;;;;;16.75;9.50;;;1.70;99.90;;;;;;4729839;30;20130;-54
2023/11/30 01:31:25;;;;;;;15.68;9.68;;;1.60;99.90;;;;;;4726841;30;20051;-52
2023/11/30 01:33:52;;;;;;;15.65;9.32;;;1.70;99.90;;;;;;4686619;30;20422;-49
2023/11/30 01:36:19;;;;;;;15.48;9.30;;;1.60;99.90;;;;;;4698781;30;20122;-50
2023/11/30 01:38:47;;;;;;;15.80;10.05;;;1.60;99.90;;;;;;4712913;30;20083;-50
2023/11/30 01:41:14;;;;;;;16.73;10.38;;;1.70;99.90;;;;;;4726222;30;20534;-52
2023/11/30 01:43:42;;;;;;;15.98;10.25;;;1.60;99.90;;;;;;4716617;30;20052;-53
2023/11/30 01:46:09;;;;;;;17.30;9.85;;;1.60;99.90;;;;;;4727271;30;20053;-49
2023/11/30 01:48:37;;;;;;;17.23;9.43;;;1.60;99.90;;;;;;4717029;30;20100;-49
2023/11/30 01:51:05;;;;;;;17.77;10.52;;;1.60;99.90;;;;;;4726078;30;20044;-51
2023/11/30 01:53:36;;;;;;;13.38;9.07;;;1.60;99.90;;;;;;4716730;30;20150;-49
2023/11/30 01:56:04;;;;;;;16.58;10.50;;;1.60;99.90;;;;;;4727419;30;20529;-48
2023/11/30 01:58:32;;;;;;;14.70;10.20;;;1.60;99.90;;;;;;4726812;30;20061;-50
2023/11/30 02:01:00;;;;;;;16.23;10.50;;;1.60;99.90;;;;;;4727430;30;20057;-49
2023/11/30 02:03:28;;;;;;;16.45;9.50;;;1.60;99.90;;;;;;4711379;30;20088;-53
2023/11/30 02:05:55;;;;;;;16.10;9.27;;;1.50;99.90;;;;;;4710974;30;20077;-52
2023/11/30 02:08:22;;;;;;;17.00;9.88;;;1.60;99.90;;;;;;4711157;30;20052;-52
2023/11/30 02:10:50;;;;;;;14.93;9.35;;;1.60;99.90;;;;;;4710550;30;20173;-51
2023/11/30 02:13:17;;;;;;;15.70;9.95;;;1.60;99.90;;;;;;4727177;30;20051;-60
2023/11/30 02:15:44;;;;;;;15.90;10.25;;;1.70;99.90;;;;;;4730289;30;20057;-48
2023/11/30 02:18:11;;;;;;;15.55;9.45;;;1.70;99.90;;;;;;4697974;30;20069;-49
2023/11/30 02:20:38;;;;;;;16.50;10.00;;;1.60;99.90;;;;;;4726871;30;20549;-56
2023/11/30 02:23:05;;;;;;;15.05;9.45;;;1.60;99.90;;;;;;4710010;30;20140;-49
2023/11/30 02:25:32;;;;;;;14.23;9.15;;;1.70;99.90;;;;;;4727996;30;20139;-51
2023/11/30 02:27:59;;;;;;;15.90;10.10;;;1.70;99.90;;;;;;4727764;30;20049;-50
2023/11/30 02:30:27;;;;;;;13.88;9.07;;;1.70;99.90;;;;;;4730646;30;20135;-50
2023/11/30 02:32:54;;;;;;;16.05;9.98;;;1.70;99.90;;;;;;4732936;30;20060;-47
2023/11/30 02:35:21;;;;;;;14.90;9.60;;;1.70;99.90;;;;;;4734132;30;20059;-52
2023/11/30 02:37:48;;;;;;;16.17;10.25;;;1.70;99.90;;;;;;4700319;30;20056;-54
2023/11/30 02:40:15;;;;;;;14.90;9.75;;;1.60;99.90;;;;;;4734482;30;20471;-55
2023/11/30 02:42:43;;;;;;;18.00;10.02;;;1.60;99.90;;;;;;4715582;30;20571;-52
2023/11/30 02:45:10;;;;;;;16.73;9.80;;;1.60;99.90;;;;;;4733406;30;20114;-51
2023/11/30 02:47:37;;;;;;;15.45;10.20;;;1.60;99.90;;;;;;4731420;30;20072;-50
2023/11/30 02:50:05;;;;;;;17.25;10.13;;;1.60;99.90;;;;;;4697758;30;20060;-51
2023/11/30 02:52:32;;;;;;;15.77;9.60;;;1.60;99.90;;;;;;4725927;30;20053;-51
2023/11/30 02:54:59;;;;;;;14.60;9.55;;;1.60;99.90;;;;;;4732223;30;20965;-47
2023/11/30 02:57:27;;;;;;;14.48;9.65;;;1.70;99.90;;;;;;4731076;30;20052;-50
2023/11/30 02:59:54;;;;;;;15.70;9.48;;;1.60;99.90;;;;;;4730023;30;20120;-52
2023/11/30 03:02:22;;;;;;;14.15;9.15;;;1.60;99.90;;;;;;4731371;30;20080;-56
2023/11/30 03:04:50;;;;;;;14.35;9.07;;;1.60;99.90;;;;;;4729293;30;20072;-56
2023/11/30 03:07:17;;;;;;;18.58;9.70;;;1.60;99.90;;;;;;4729830;30;20044;-54
2023/11/30 03:09:44;;;;;;;15.27;9.90;;;1.60;99.90;;;;;;4729692;30;20142;-51
2023/11/30 03:12:14;;;;;;;15.18;9.68;;;1.60;99.90;;;;;;4709729;30;20052;-46
2023/11/30 03:14:45;;;;;;;13.40;9.18;;;1.50;99.90;;;;;;4730451;30;20074;-49
2023/11/30 03:17:12;;;;;;;15.82;9.65;;;1.60;99.90;;;;;;4700459;30;20143;-48
2023/11/30 03:19:40;;;;;;;15.55;9.70;;;1.50;99.90;;;;;;4730895;30;20045;-55
2023/11/30 03:22:07;;;;;;;14.40;9.50;;;1.60;99.90;;;;;;4725632;30;20583;-48
2023/11/30 03:24:34;;;;;;;16.98;10.75;;;1.50;99.90;;;;;;4715311;30;20048;-53
2023/11/30 03:27:01;;;;;;;15.45;9.93;;;1.50;99.90;;;;;;4733292;30;20566;-54
2023/11/30 03:29:28;;;;;;;15.80;10.15;;;1.50;99.90;;;;;;4729882;30;20118;-53
2023/11/30 03:31:55;;;;;;;16.02;9.65;;;1.40;99.90;;;;;;4728232;30;20589;-53
2023/11/30 03:34:22;;;;;;;16.10;9.85;;;1.40;99.90;;;;;;4731885;30;20484;-51
2023/11/30 03:36:50;;;;;;;16.20;9.95;;;1.40;99.90;;;;;;4716209;30;20162;-52
2023/11/30 03:39:17;;;;;;;16.10;10.38;;;1.40;99.90;;;;;;4730184;30;20422;-53
2023/11/30 03:41:44;;;;;;;15.40;9.68;;;1.40;99.90;;;;;;4699853;30;20052;-51
2023/11/30 03:44:11;;;;;;;15.35;10.43;;;1.30;99.90;;;;;;4729621;30;20059;-47
2023/11/30 03:46:39;;;;;;;14.15;9.07;;;1.30;99.90;;;;;;4723457;30;20040;-55
2023/11/30 03:49:06;;;;;;;14.93;9.70;;;1.30;99.90;;;;;;4715307;30;20052;-52
2023/11/30 03:51:33;;;;;;;15.57;9.55;;;1.30;99.90;;;;;;4714242;30;20052;-51
2023/11/30 03:54:00;;;;;;;14.88;9.85;;;1.30;99.90;;;;;;4715882;30;20056;-49
2023/11/30 03:56:31;;;;;;;14.25;9.18;;;1.30;99.90;;;;;;4731446;30;20132;-51
2023/11/30 03:58:58;;;;;;;14.35;8.93;;;1.30;99.90;;;;;;4727891;30;20102;-50
2023/11/30 04:01:25;;;;;;;16.98;10.40;;;1.30;99.90;;;;;;4731230;30;20052;-54
2023/11/30 04:03:53;;;;;;;15.90;10.02;;;1.20;99.90;;;;;;4729021;30;20140;-51
2023/11/30 04:06:22;;;;;;;15.35;9.52;;;1.30;99.90;;;;;;4729848;30;20060;-51
2023/11/30 04:08:50;;;;;;;15.43;10.18;;;1.30;99.90;;;;;;4727951;30;20049;-54
2023/11/30 04:11:18;;;;;;;13.77;8.90;;;1.20;99.90;;;;;;4729040;30;20331;-54
2023/11/30 04:13:47;;;;;;;17.17;10.35;;;1.20;99.90;;;;;;4729828;30;20056;-52
2023/11/30 04:16:15;;;;;;;14.38;10.20;;;1.20;99.90;;;;;;4711152;30;20056;-47
2023/11/30 04:18:43;;;;;;;16.10;10.35;;;1.20;99.90;;;;;;4717893;30;20059;-54
2023/11/30 04:21:10;;;;;;;14.73;10.48;;;1.20;99.90;;;;;;4719707;30;20076;-54
2023/11/30 04:23:37;;;;;;;15.43;9.23;;;1.10;99.90;;;;;;4729910;30;20060;-53
2023/11/30 04:26:05;;;;;;;19.05;9.90;;;1.10;99.90;;;;;;4729745;30;20056;-51
2023/11/30 04:28:33;;;;;;;17.58;9.93;;;1.10;99.90;;;;;;4708623;30;20569;-51
2023/11/30 04:31:01;;;;;;;17.10;10.02;;;1.10;99.90;;;;;;4698584;30;20136;-49
2023/11/30 04:33:28;;;;;;;15.15;9.30;;;1.10;99.90;;;;;;4731125;30;20055;-49
2023/11/30 04:35:55;;;;;;;15.45;9.82;;;1.10;99.90;;;;;;4731242;30;20060;-49
2023/11/30 04:38:22;;;;;;;14.75;9.48;;;1.10;99.90;;;;;;4729954;30;20103;-49
2023/11/30 04:40:50;;;;;;;14.60;9.60;;;1.10;99.90;;;;;;4718828;30;20064;-53
2023/11/30 04:43:17;;;;;;;15.10;9.68;;;1.10;99.90;;;;;;4730457;30;20083;-48
2023/11/30 04:45:44;;;;;;;13.70;8.73;;;1.10;99.90;;;;;;4728443;30;20067;-53
2023/11/30 04:48:11;;;;;;;16.23;9.77;;;1.10;99.90;;;;;;4728007;30;20044;-51
2023/11/30 04:50:39;;;;;;;15.45;9.32;;;1.10;99.90;;;;;;4725559;30;20102;-53
2023/11/30 04:53:06;;;;;;;18.13;10.23;;;1.00;99.90;;;;;;4732522;30;20391;-48
2023/11/30 04:55:33;;;;;;;15.38;9.80;;;1.00;99.90;;;;;;4730993;30;20074;-50
2023/11/30 04:58:01;;;;;;;15.18;10.20;;;0.90;99.90;;;;;;4696690;30;20606;-51
2023/11/30 05:00:28;;;;;;;15.02;9.75;;;0.90;99.90;;;;;;4727467;30;20527;-50
2023/11/30 05:02:55;;;;;;;15.52;9.15;;;0.80;99.90;;;;;;4713327;30;20059;-47
2023/11/30 05:05:23;;;;;;;15.07;9.77;;;0.80;99.90;;;;;;4731493;30;20060;-54
2023/11/30 05:07:50;;;;;;;17.75;10.38;;;0.80;99.90;;;;;;4729056;30;20059;-51
2023/11/30 05:10:17;;;;;;;16.15;9.65;;;0.70;99.90;;;;;;4726282;30;20049;-50
2023/11/30 05:12:46;;;;;;;16.10;9.60;;;0.70;99.90;;;;;;4728659;30;20048;-53
2023/11/30 05:15:13;;;;;;;18.00;10.25;;;0.60;99.90;;;;;;4729092;30;20052;-55
2023/11/30 05:17:40;;;;;;;17.35;10.75;;;0.60;99.90;;;;;;4716995;30;20048;-51
2023/11/30 05:20:08;;;;;;;17.05;10.30;;;0.60;99.90;;;;;;4732368;30;20538;-47
2023/11/30 05:22:35;;;;;;;18.05;10.30;;;0.50;99.90;;;;;;4729321;30;20040;-49
2023/11/30 05:25:02;;;;;;;15.70;9.60;;;0.60;99.90;;;;;;4725368;30;20082;-52
2023/11/30 05:27:30;;;;;;;15.55;10.65;;;0.60;99.90;;;;;;4713069;30;20049;-53
2023/11/30 05:29:58;;;;;;;15.43;10.18;;;0.50;99.90;;;;;;4712745;30;20055;-54
2023/11/30 05:32:25;;;;;;;17.05;9.93;;;0.50;99.90;;;;;;4730582;30;20161;-50
2023/11/30 05:34:52;;;;;;;17.25;11.00;;;0.50;99.90;;;;;;4728515;30;20317;-49
2023/11/30 05:37:19;;;;;;;16.10;10.60;;;0.50;99.90;;;;;;4728751;30;20080;-48
2023/11/30 05:39:46;;;;;;;14.38;9.75;;;0.40;99.90;;;;;;4728260;30;20067;-52
2023/11/30 05:42:14;;;;;;;17.55;10.43;;;0.30;99.90;;;;;;4729297;30;20056;-47
2023/11/30 05:44:41;;;;;;;17.35;9.77;;;0.30;99.90;;;;;;4717570;30;20091;-52
2023/11/30 05:47:08;;;;;;;15.98;10.63;;;0.30;99.90;;;;;;4729546;30;20045;-52
2023/11/30 05:49:35;;;;;;;18.17;11.25;;;0.30;99.90;;;;;;4728667;30;20479;-49
2023/11/30 05:52:04;;;;;;;19.33;11.10;;;0.20;99.90;;;;;;4728777;30;20068;-52
2023/11/30 05:54:31;;;;;;;17.50;11.02;;;0.20;99.90;;;;;;4728627;30;20574;-47
2023/11/30 05:56:58;;;;;;;19.73;12.45;;;0.20;99.90;;;;;;4731113;30;20044;-49
2023/11/30 05:59:27;;;;;;;18.38;11.52;;;0.20;99.90;;;;;;4720767;30;20061;-48
2023/11/30 06:01:54;;;;;;;18.20;11.75;;;0.10;99.90;;;;;;4726055;30;20451;-54
2023/11/30 06:04:22;;;;;;;17.65;10.93;;;0.10;99.90;;;;;;4729569;30;20063;-50
2023/11/30 06:06:49;;;;;;;20.67;12.23;;;0.10;99.90;;;;;;4731250;30;20057;-48
2023/11/30 06:09:17;;;;;;;20.38;11.95;;;0.10;99.90;;;;;;4731813;30;20131;-49
2023/11/30 06:11:44;;;;;;;20.42;12.07;;;0.10;99.90;;;;;;4713852;30;20088;-51
2023/11/30 06:14:11;;;;;;;20.67;12.10;;;0.10;99.90;;;;;;4724230;30;20131;-49
2023/11/30 06:16:38;;;;;;;19.52;12.02;;;0.10;99.90;;;;;;4730982;30;20063;-47
2023/11/30 06:19:05;;;;;;;20.08;11.88;;;0.10;99.90;;;;;;4730714;30;20526;-51
2023/11/30 06:21:32;;;;;;;21.27;11.88;;;0.10;99.90;;;;;;4727118;30;20055;-51
2023/11/30 06:23:59;;;;;;;19.50;11.85;;;0.10;99.90;;;;;;4729705;30;20052;-50
2023/11/30 06:26:27;;;;;;;20.05;11.10;;;0.20;99.90;;;;;;4731269;30;20076;-52
2023/11/30 06:28:54;;;;;;;18.98;12.27;;;0.20;99.90;;;;;;4711445;30;20483;-51
2023/11/30 06:31:22;;;;;;;21.65;12.80;;;0.20;99.90;;;;;;4715544;30;20065;-50
2023/11/30 06:33:50;;;;;;;28.40;16.83;;;0.20;99.90;;;;;;4730783;30;20052;-51
2023/11/30 06:36:17;;;;;;;22.83;13.40;;;0.10;99.90;;;;;;4730461;30;20072;-52
2023/11/30 06:38:44;;;;;;;18.63;11.52;;;0.10;99.90;;;;;;4730896;30;20393;-55
2023/11/30 06:41:12;;;;;;;20.88;12.27;;;0.10;99.90;;;;;;4729297;30;20140;-46
2023/11/30 06:43:40;;;;;;;21.25;11.90;;;0.00;99.90;;;;;;4712711;30;20515;-47
2023/11/30 06:46:07;;;;;;;22.77;13.00;;;0.00;99.90;;;;;;4710298;30;20099;-54
2023/11/30 06:48:35;;;;;;;21.35;13.10;;;0.00;99.90;;;;;;4729734;30;20127;-52
2023/11/30 06:51:06;;;;;;;18.80;12.90;;;0.00;99.90;;;;;;4726845;30;20460;-52
2023/11/30 06:53:33;;;;;;;22.70;13.13;;;0.00;99.90;;;;;;4715081;30;20112;-52
2023/11/30 06:56:00;;;;;;;21.33;12.73;;;0.00;99.90;;;;;;4729369;30;20679;-49
2023/11/30 06:58:28;;;;;;;23.08;13.13;;;0.00;99.90;;;;;;4730235;30;20045;-46
2023/11/30 07:00:55;;;;;;;22.70;12.90;;;0.00;99.90;;;;;;4729675;30;20057;-50
2023/11/30 07:03:23;;;;;;;19.92;12.25;;;0.00;99.90;;;;;;4714787;30;20437;-49
2023/11/30 07:05:50;;;;;;;20.38;12.07;;;0.00;99.90;;;;;;4713775;30;20565;-55
2023/11/30 07:08:18;;;;;;;22.80;13.30;;;0.00;99.90;;;;;;4711515;30;20888;-49
2023/11/30 07:10:45;;;;;;;23.30;13.90;;;0.10;99.90;;;;;;4729821;30;20494;-54
2023/11/30 07:13:13;;;;;;;24.80;13.13;;;0.00;99.90;;;;;;4731083;30;20068;-54
2023/11/30 07:15:40;;;;;;;21.10;13.60;;;0.10;99.90;;;;;;4726277;30;20041;-48
2023/11/30 07:18:07;;;;;;;22.42;14.05;;;0.00;99.90;;;;;;4729289;30;20400;-47
2023/11/30 07:20:36;;;;;;;18.85;12.77;;;0.10;99.90;;;;;;4732049;30;20048;-47
2023/11/30 07:23:04;;;;;;;20.25;12.88;;;0.10;99.90;;;;;;4728447;30;20118;-49
2023/11/30 07:25:31;;;;;;;23.85;15.20;;;0.10;99.90;;;;;;4732258;30;20048;-51
2023/11/30 07:27:59;;;;;;;23.60;14.15;;;0.10;99.90;;;;;;4730350;30;20044;-49
2023/11/30 07:30:27;;;;;;;21.23;13.65;;;0.10;99.90;;;;;;4729296;30;20044;-47
2023/11/30 07:32:54;;;;;;;22.02;12.98;;;0.10;99.90;;;;;;4733232;30;20431;-48
2023/11/30 07:35:21;;;;;;;21.92;13.63;;;0.10;99.90;;;;;;4731589;30;20119;-49
2023/11/30 07:37:48;;;;;;;23.65;13.63;;;0.20;99.90;;;;;;4731769;30;20139;-47
2023/11/30 07:40:15;;;;;;;22.17;13.77;;;0.30;99.90;;;;;;4730589;30;20061;-50
2023/11/30 07:42:42;;;;;;;23.80;15.10;;;0.30;99.90;;;;;;4730341;30;20056;-51
2023/11/30 07:45:11;;;;;;;25.52;13.20;;;0.40;99.90;;;;;;4731654;30;20142;-52
2023/11/30 07:47:38;;;;;;;21.70;13.23;;;0.50;99.90;;;;;;4730512;30;20512;-49
2023/11/30 07:50:06;;;;;;;22.63;13.25;;;0.60;99.90;;;;;;4712484;30;20120;-49
2023/11/30 07:52:37;;;;;;;20.40;13.43;;;0.70;99.90;;;;;;4730266;30;20099;-52
2023/11/30 07:55:04;;;;;;;20.30;13.43;;;0.70;99.90;;;;;;4726348;30;20045;-47
2023/11/30 07:57:32;;;;;;;24.52;13.35;;;0.80;99.90;;;;;;4711454;30;20158;-49
2023/11/30 07:59:59;;;;;;;22.45;13.77;;;0.80;99.90;;;;;;4730040;30;20430;-45
2023/11/30 08:02:30;;;;;;;20.65;13.50;;;0.90;99.90;;;;;;4727495;30;20142;-50
2023/11/30 08:04:57;;;;;;;18.67;12.50;;;1.00;99.90;;;;;;4728986;30;20076;-49
2023/11/30 08:07:24;;;;;;;20.83;13.57;;;1.00;99.90;;;;;;4714446;30;20092;-54
2023/11/30 08:09:52;;;;;;;24.50;13.98;;;1.20;99.90;;;;;;4730351;30;20052;-45
2023/11/30 08:12:19;;;;;;;23.88;13.90;;;1.20;99.90;;;;;;4734616;30;20055;-50
2023/11/30 08:14:46;;;;;;;25.48;15.40;;;1.30;99.90;;;;;;4731450;30;20127;-54
2023/11/30 08:17:14;;;;;;;24.40;15.05;;;1.30;99.90;;;;;;4728486;30;20062;-48
2023/11/30 08:19:41;;;;;;;22.58;14.43;;;1.40;99.90;;;;;;4729443;30;20056;-47
2023/11/30 08:22:09;;;;;;;21.92;13.57;;;1.50;99.90;;;;;;4709160;30;20076;-45
2023/11/30 08:24:39;;;;;;;24.33;13.87;;;1.60;99.90;;;;;;4714269;30;20892;-50
2023/11/30 08:27:07;;;;;;;21.67;13.80;;;1.60;99.90;;;;;;4713876;30;20056;-48
2023/11/30 08:29:36;;;;;;;23.75;15.02;;;1.60;99.90;;;;;;4711496;30;20143;-48
2023/11/30 08:32:04;;;;;;;19.50;12.70;;;1.70;99.90;;;;;;4730239;30;20048;-48
2023/11/30 08:34:31;;;;;;;20.25;13.30;;;1.80;99.90;;;;;;4729695;30;20568;-46
2023/11/30 08:36:59;;;;;;;19.02;12.40;;;1.90;99.90;;;;;;4727439;30;20138;-48
2023/11/30 08:39:30;;;;;;;17.88;13.27;;;2.10;99.90;;;;;;4728563;30;20052;-48
2023/11/30 08:41:57;;;;;;;20.92;14.20;;;2.20;99.90;;;;;;4724753;30;20671;-49
2023/11/30 08:44:24;;;;;;;20.75;13.02;;;2.20;99.90;;;;;;4728142;30;20055;-53
2023/11/30 08:46:52;;;;;;;21.42;14.27;;;2.30;99.90;;;;;;4729277;30;20064;-48
2023/11/30 08:49:21;;;;;;;21.33;13.93;;;2.40;99.90;;;;;;4728428;30;20114;-49
2023/11/30 08:51:48;;;;;;;24.38;14.40;;;2.40;99.90;;;;;;4730240;30;20488;-51
2023/11/30 08:54:15;;;;;;;20.92;13.20;;;2.30;99.90;;;;;;4717491;30;20085;-51
2023/11/30 08:56:42;;;;;;;21.42;14.25;;;2.40;99.90;;;;;;4714413;30;20063;-49
2023/11/30 08:59:10;;;;;;;19.15;13.20;;;2.40;99.90;;;;;;4730494;30;20436;-46
2023/11/30 09:01:37;;;;;;;20.65;13.85;;;2.40;99.90;;;;;;4730033;30;20052;-48
2023/11/30 09:04:08;;;;;;;20.67;12.32;;;2.30;99.90;;;;;;4726133;30;20048;-49
2023/11/30 09:06:36;;;;;;;21.38;14.23;;;2.30;99.90;;;;;;4729314;30;20049;-51
2023/11/30 09:09:03;;;;;;;19.98;13.45;;;2.30;99.90;;;;;;4726818;30;20048;-48
2023/11/30 09:11:33;;;;;;;18.83;13.32;;;2.30;99.90;;;;;;4727769;30;20461;-47
2023/11/30 09:14:00;;;;;;;18.70;13.10;;;2.30;99.90;;;;;;4730368;30;20726;-46
2023/11/30 09:16:27;;;;;;;21.42;13.23;;;2.20;99.90;;;;;;4712412;30;20095;-47
2023/11/30 09:18:54;;;;;;;19.70;13.20;;;2.30;99.90;;;;;;4726239;30;20516;-46
2023/11/30 09:21:22;;;;;;;23.55;15.32;;;2.30;99.90;;;;;;4725189;30;20124;-48
2023/11/30 09:23:52;;;;;;;21.92;13.13;;;2.30;99.90;;;;;;4726917;30;20114;-46
2023/11/30 09:26:21;;;;;;;24.30;14.30;;;2.50;99.90;;;;;;4727718;30;20056;-47
2023/11/30 09:28:48;;;;;;;20.63;13.15;;;2.70;99.90;;;;;;4726045;30;20052;-53
2023/11/30 09:31:16;;;;;;;19.08;12.25;;;2.90;99.90;;;;;;4720815;30;20045;-48
2023/11/30 09:33:44;;;;;;;17.38;12.05;;;3.10;99.90;;;;;;4716761;30;20116;-54
2023/11/30 09:36:12;;;;;;;19.20;12.30;;;3.30;99.90;;;;;;4722718;30;20053;-52
2023/11/30 09:38:40;;;;;;;15.75;10.85;;;3.40;99.90;;;;;;4710365;30;20135;-45
2023/11/30 09:41:11;;;;;;;16.42;11.48;;;3.50;99.90;;;;;;4730097;30;20080;-49
2023/11/30 09:43:38;;;;;;;17.08;12.35;;;3.60;99.90;;;;;;4712551;30;20147;-52
2023/11/30 09:46:06;;;;;;;16.33;11.43;;;3.60;99.90;;;;;;4695941;30;20056;-48
2023/11/30 09:48:33;;;;;;;17.38;11.82;;;3.60;99.90;;;;;;4729401;30;20076;-47
2023/11/30 09:51:02;;;;;;;24.80;15.45;;;3.60;99.90;;;;;;4727498;30;20148;-46
2023/11/30 09:53:30;;;;;;;16.58;11.82;;;3.60;99.90;;;;;;4730363;30;20048;-50
2023/11/30 09:55:57;;;;;;;17.77;11.48;;;3.60;99.90;;;;;;4726632;30;20353;-51
2023/11/30 09:58:25;;;;;;;15.20;12.05;;;3.60;99.90;;;;;;4727229;30;20072;-53
2023/11/30 10:00:52;;;;;;;19.80;13.00;;;3.60;99.90;;;;;;4726802;30;20062;-46
2023/11/30 10:03:33;;;;;;;15.25;11.23;;;3.80;99.90;;;;;;4728463;30;20440;-51
2023/11/30 10:06:01;;;;;;;15.75;10.75;;;3.90;99.90;;;;;;4725530;30;20132;-47
2023/11/30 10:08:29;;;;;;;16.33;10.48;;;3.90;99.90;;;;;;4716182;30;20473;-47
2023/11/30 10:10:56;;;;;;;14.98;10.98;;;3.90;99.90;;;;;;4726063;30;20524;-50
2023/11/30 10:13:25;;;;;;;14.95;10.48;;;4.00;99.90;;;;;;4728678;30;20059;-50
2023/11/30 10:15:52;;;;;;;16.45;10.95;;;4.10;99.90;;;;;;4726169;30;20099;-55
2023/11/30 10:18:20;;;;;;;16.13;11.63;;;4.10;99.90;;;;;;4725146;30;20658;-50
2023/11/30 10:20:47;;;;;;;16.23;11.27;;;4.10;99.90;;;;;;4726571;30;20080;-53
2023/11/30 10:23:15;;;;;;;19.38;12.30;;;4.30;99.90;;;;;;4723899;30;20056;-47
2023/11/30 10:25:46;;;;;;;16.10;11.35;;;4.30;99.90;;;;;;4722264;30;20433;-48
2023/11/30 10:28:13;;;;;;;21.13;13.25;;;4.40;99.90;;;;;;4724247;30;20302;-47
2023/11/30 10:30:42;;;;;;;18.30;12.80;;;4.60;99.90;;;;;;4713768;30;20132;-47
2023/11/30 10:33:15;;;;;;;16.05;11.07;;;4.70;99.90;;;;;;4726296;30;20046;-46
2023/11/30 10:35:44;;;;;;;20.52;11.90;;;4.80;99.90;;;;;;4725442;30;20048;-53
2023/11/30 10:38:21;;;;;;;16.42;11.13;;;4.90;99.90;;;;;;4729203;30;20124;-46
2023/11/30 10:40:49;;;;;;;19.80;13.25;;;5.10;99.90;;;;;;4723458;30;20085;-53
2023/11/30 10:43:17;;;;;;;17.83;12.32;;;5.20;99.90;;;;;;4723531;30;20056;-48
2023/11/30 10:45:45;;;;;;;22.20;13.32;;;5.20;99.90;;;;;;4714928;30;20048;-49
2023/11/30 10:48:15;;;;;;;15.52;11.20;;;5.30;99.90;;;;;;4703434;30;20448;-49
2023/11/30 10:50:44;;;;;;;18.83;12.13;;;5.20;99.90;;;;;;4729473;30;20048;-48
2023/11/30 10:53:41;;;;;;;18.63;12.95;;;5.00;99.90;;;;;;4733511;30;20075;-52
2023/11/30 10:56:13;;;;;;;18.08;12.30;;;5.20;99.90;;;;;;4696101;30;20520;-55
2023/11/30 10:58:43;;;;;;;18.98;12.20;;;5.20;99.90;;;;;;4731349;30;20507;-50
2023/11/30 11:01:12;;;;;;;17.05;11.10;;;5.40;99.90;;;;;;4730622;30;20105;-53
2023/11/30 11:03:46;;;;;;;17.42;10.85;;;5.30;99.90;;;;;;4731193;30;20192;-47
2023/11/30 11:06:15;;;;;;;21.40;11.57;;;5.20;99.90;;;;;;4726529;30;20060;-53
2023/11/30 11:09:05;;;;;;;20.15;12.63;;;5.30;99.90;;;;;;4720353;30;20063;-47
2023/11/30 11:11:33;;;;;;;15.63;11.27;;;5.50;99.90;;;;;;4705107;30;20057;-48
2023/11/30 11:14:01;;;;;;;16.73;11.07;;;5.60;99.90;;;;;;4719341;30;20060;-49
2023/11/30 11:16:41;;;;;;;17.42;12.27;;;5.70;99.90;;;;;;4730408;30;20078;-50
2023/11/30 11:19:09;;;;;;;17.05;11.63;;;5.90;99.90;;;;;;4727183;30;20136;-51
2023/11/30 11:21:37;;;;;;;19.45;12.77;;;5.90;99.90;;;;;;4729410;30;20040;-53
2023/11/30 11:24:07;;;;;;;18.15;11.68;;;6.20;99.90;;;;;;4726844;30;20059;-52
2023/11/30 11:26:45;;;;;;;16.35;11.25;;;6.30;99.90;;;;;;4730667;30;20059;-55
2023/11/30 11:29:16;;;;;;;17.13;11.05;;;6.40;99.90;;;;;;4726676;30;20056;-56
2023/11/30 11:31:58;;;;;;;16.13;11.80;;;6.40;99.90;;;;;;4733864;30;20057;-53
2023/11/30 11:34:25;;;;;;;14.70;11.13;;;6.40;99.90;;;;;;4728223;30;20044;-51
2023/11/30 11:36:52;;;;;;;14.82;10.90;;;6.40;99.90;;;;;;4728489;30;20075;-55
2023/11/30 11:39:21;;;;;;;17.85;10.93;;;6.30;99.90;;;;;;4726454;30;20519;-49
2023/11/30 11:41:50;;;;;;;17.17;11.60;;;6.40;99.90;;;;;;4730263;30;20049;-49
2023/11/30 11:44:17;;;;;;;15.82;10.35;;;6.40;99.90;;;;;;4728742;30;20060;-50
2023/11/30 11:46:47;;;;;;;15.88;10.88;;;6.40;99.90;;;;;;4721980;30;20143;-52
2023/11/30 11:49:14;;;;;;;19.65;11.80;;;6.40;99.90;;;;;;4729332;30;20124;-47
2023/11/30 11:51:45;;;;;;;19.60;12.98;;;6.20;99.90;;;;;;4726114;30;20051;-55
2023/11/30 11:54:20;;;;;;;21.35;13.55;;;6.30;99.90;;;;;;4717635;30;20053;-54
2023/11/30 11:56:49;;;;;;;19.88;11.82;;;6.30;99.90;;;;;;4727336;30;20052;-52
2023/11/30 11:59:23;;;;;;;17.98;12.32;;;6.30;99.90;;;;;;4731220;30;20056;-50
2023/11/30 12:01:51;;;;;;;15.13;11.10;;;6.20;99.90;;;;;;4713464;30;20147;-52
2023/11/30 12:04:26;;;;;;;21.50;11.80;;;6.20;99.90;;;;;;4719503;30;20160;-49
2023/11/30 12:06:54;;;;;;;14.48;11.32;;;6.20;99.90;;;;;;4729616;30;20060;-49
2023/11/30 12:09:21;;;;;;;20.88;11.50;;;6.50;99.90;;;;;;4730354;30;20596;-51
2023/11/30 12:11:48;;;;;;;16.42;11.63;;;6.50;99.90;;;;;;4732053;30;20131;-52
2023/11/30 12:14:16;;;;;;;16.15;11.00;;;6.50;99.90;;;;;;4730662;30;20507;-52
2023/11/30 12:16:43;;;;;;;15.32;9.93;;;6.70;99.90;;;;;;4726926;30;20052;-50
2023/11/30 12:19:11;;;;;;;19.00;9.82;;;6.50;99.90;;;;;;4729610;30;20052;-48
2023/11/30 12:21:39;;;;;;;17.20;10.30;;;6.30;99.90;;;;;;4728053;30;20337;-49
2023/11/30 12:24:07;;;;;;;12.75;9.50;;;6.10;99.90;;;;;;4709809;30;20049;-49
2023/11/30 12:26:35;;;;;;;15.48;9.95;;;5.80;99.90;;;;;;4713341;30;20051;-47
2023/11/30 12:29:02;;;;;;;17.05;10.52;;;5.90;99.90;;;;;;4727183;30;20096;-53
2023/11/30 12:31:29;;;;;;;14.63;10.02;;;6.00;99.90;;;;;;4730343;30;20135;-50
2023/11/30 12:33:56;;;;;;;12.98;9.35;;;5.90;99.90;;;;;;4728605;30;20359;-49
2023/11/30 12:36:23;;;;;;;12.65;9.40;;;5.80;99.90;;;;;;4727669;30;20400;-47
2023/11/30 12:38:51;;;;;;;16.95;10.45;;;5.80;99.90;;;;;;4727936;30;20061;-55
2023/11/30 12:41:18;;;;;;;14.48;9.45;;;5.80;99.90;;;;;;4705390;30;20069;-51
2023/11/30 12:43:47;;;;;;;15.57;9.77;;;5.80;99.90;;;;;;4723403;30;20110;-48